createdAt,value
2023-04-14T00:00:27.982Z,31.75
2023-04-14T00:00:59.458Z,31.66
2023-04-14T00:01:30.874Z,31.63
2023-04-14T00:02:02.298Z,31.73
2023-04-14T00:02:33.907Z,31.66
2023-04-14T00:03:05.621Z,31.50
2023-04-14T00:03:37.316Z,31.57
2023-04-14T00:04:09.032Z,31.71
2023-04-14T00:04:40.704Z,31.58
2023-04-14T00:05:12.340Z,31.63
2023-04-14T00:05:43.800Z,31.58
2023-04-14T00:06:15.198Z,31.71
2023-04-14T00:06:46.600Z,31.68
2023-04-14T00:07:17.974Z,31.70
2023-04-14T00:07:49.317Z,31.80
2023-04-14T00:08:20.796Z,31.74
2023-04-14T00:08:52.154Z,31.88
2023-04-14T00:09:23.509Z,31.73
2023-04-14T00:09:54.904Z,31.81
2023-04-14T00:10:26.334Z,31.79
2023-04-14T00:10:57.702Z,32.07
2023-04-14T00:11:29.072Z,31.88
2023-04-14T00:12:00.411Z,31.85
2023-04-14T00:12:31.824Z,31.93
2023-04-14T00:13:03.341Z,31.90
2023-04-14T00:13:34.746Z,31.82
2023-04-14T00:14:06.172Z,31.71
2023-04-14T00:14:37.571Z,31.94
2023-04-14T00:15:08.989Z,31.86
2023-04-14T00:15:40.415Z,31.75
2023-04-14T00:16:11.809Z,31.78
2023-04-14T00:16:43.242Z,31.90
2023-04-14T00:17:14.744Z,31.75
2023-04-14T00:17:46.246Z,31.76
2023-04-14T00:18:17.686Z,31.76
2023-04-14T00:18:49.133Z,31.79
2023-04-14T00:19:20.589Z,31.57
2023-04-14T00:19:51.959Z,31.66
2023-04-14T00:20:23.330Z,31.55
2023-04-14T00:20:54.720Z,31.72
2023-04-14T00:21:26.049Z,31.46
2023-04-14T00:21:57.437Z,31.57
2023-04-14T00:22:28.799Z,31.64
2023-04-14T00:23:00.171Z,31.72
2023-04-14T00:23:31.571Z,31.53
2023-04-14T00:24:03.025Z,31.65
2023-04-14T00:24:34.519Z,31.67
2023-04-14T00:25:05.964Z,31.57
2023-04-14T00:25:37.443Z,31.64
2023-04-14T00:26:08.944Z,31.73
2023-04-14T00:26:40.347Z,31.61
2023-04-14T00:27:11.716Z,31.64
2023-04-14T00:27:43.112Z,31.56
2023-04-14T00:28:14.533Z,31.66
2023-04-14T00:28:46.142Z,31.62
2023-04-14T00:29:17.652Z,31.59
2023-04-14T00:29:49.100Z,31.54
2023-04-14T00:30:20.502Z,31.62
2023-04-14T00:30:51.996Z,31.70
2023-04-14T00:31:23.472Z,31.69
2023-04-14T00:31:54.998Z,31.57
2023-04-14T00:32:26.390Z,31.52
2023-04-14T00:32:57.809Z,31.72
2023-04-14T00:33:29.282Z,31.65
2023-04-14T00:34:00.625Z,31.50
2023-04-14T00:34:32.032Z,31.58
2023-04-14T00:35:03.525Z,31.33
2023-04-14T00:35:35.170Z,31.47
2023-04-14T00:36:06.607Z,31.58
2023-04-14T00:36:38.038Z,31.68
2023-04-14T00:37:09.476Z,31.41
2023-04-14T00:37:40.886Z,31.43
2023-04-14T00:38:12.264Z,31.43
2023-04-14T00:38:43.646Z,31.54
2023-04-14T00:39:15.003Z,31.62
2023-04-14T00:39:46.513Z,31.60
2023-04-14T00:40:17.931Z,31.55
2023-04-14T00:40:49.309Z,31.74
2023-04-14T00:41:20.673Z,31.70
2023-04-14T00:41:52.092Z,31.55
2023-04-14T00:42:23.500Z,31.64
2023-04-14T00:42:54.881Z,31.66
2023-04-14T00:43:26.267Z,31.69
2023-04-14T00:43:57.698Z,31.63
2023-04-14T00:44:29.052Z,31.97
2023-04-14T00:45:00.498Z,31.88
2023-04-14T00:45:32.000Z,31.86
2023-04-14T00:46:03.388Z,31.71
2023-04-14T00:46:34.866Z,31.71
2023-04-14T00:47:06.310Z,31.80
2023-04-14T00:47:37.699Z,31.69
2023-04-14T00:48:09.101Z,31.52
2023-04-14T00:48:40.509Z,31.70
2023-04-14T00:49:11.902Z,31.52
2023-04-14T00:49:43.287Z,31.66
2023-04-14T00:50:14.629Z,31.83
2023-04-14T00:50:46.046Z,31.83
2023-04-14T00:51:17.427Z,31.84
2023-04-14T00:51:48.790Z,31.85
2023-04-14T00:52:20.237Z,31.80
2023-04-14T00:52:51.571Z,31.67
2023-04-14T00:53:22.969Z,31.50
2023-04-14T00:53:54.344Z,31.59
2023-04-14T00:54:25.760Z,31.66
2023-04-14T00:54:57.113Z,31.57
2023-04-14T00:55:28.485Z,31.66
2023-04-14T00:55:59.879Z,31.48
2023-04-14T00:56:31.220Z,31.49
2023-04-14T00:57:02.655Z,31.49
2023-04-14T00:57:34.078Z,31.54
2023-04-14T00:58:05.485Z,31.57
2023-04-14T00:58:36.956Z,31.49
2023-04-14T00:59:08.314Z,31.40
2023-04-14T00:59:39.720Z,31.57
2023-04-14T01:00:11.085Z,31.42
2023-04-14T01:00:42.452Z,31.52
2023-04-14T01:01:13.912Z,31.59
2023-04-14T01:01:45.449Z,31.55
2023-04-14T01:02:16.935Z,31.50
2023-04-14T01:02:48.688Z,31.41
2023-04-14T01:03:20.385Z,31.53
2023-04-14T01:03:52.024Z,31.51
2023-04-14T01:04:24.214Z,31.47
2023-04-14T01:04:57.399Z,31.43
2023-04-14T01:05:29.007Z,31.54
2023-04-14T01:06:00.422Z,31.56
2023-04-14T01:06:31.837Z,31.58
2023-04-14T01:07:03.252Z,31.59
2023-04-14T01:07:34.606Z,31.50
2023-04-14T01:08:06.065Z,31.42
2023-04-14T01:08:37.433Z,31.48
2023-04-14T01:09:08.787Z,31.60
2023-04-14T01:09:40.212Z,31.46
2023-04-14T01:10:11.570Z,31.42
2023-04-14T01:10:42.935Z,31.52
2023-04-14T01:11:14.403Z,31.54
2023-04-14T01:11:45.800Z,31.59
2023-04-14T01:12:17.198Z,31.58
2023-04-14T01:12:48.563Z,31.68
2023-04-14T01:13:20.026Z,31.53
2023-04-14T01:13:51.405Z,31.67
2023-04-14T01:14:22.774Z,31.50
2023-04-14T01:14:54.106Z,31.52
2023-04-14T01:15:25.486Z,31.50
2023-04-14T01:15:56.882Z,31.41
2023-04-14T01:16:28.278Z,31.57
2023-04-14T01:16:59.608Z,31.49
2023-04-14T01:17:31.106Z,31.45
2023-04-14T01:18:02.593Z,31.43
2023-04-14T01:18:34.034Z,31.49
2023-04-14T01:19:05.454Z,31.49
2023-04-14T01:19:36.842Z,31.57
2023-04-14T01:20:08.203Z,31.42
2023-04-14T01:20:39.650Z,31.64
2023-04-14T01:21:10.996Z,31.53
2023-04-14T01:21:42.359Z,31.50
2023-04-14T01:22:13.747Z,31.52
2023-04-14T01:22:45.106Z,31.48
2023-04-14T01:23:16.458Z,31.48
2023-04-14T01:23:47.825Z,31.58
2023-04-14T01:24:19.370Z,31.39
2023-04-14T01:24:50.801Z,31.57
2023-04-14T01:25:22.221Z,31.61
2023-04-14T01:25:53.607Z,31.52
2023-04-14T01:26:25.017Z,31.67
2023-04-14T01:26:56.411Z,31.73
2023-04-14T01:27:27.753Z,31.59
2023-04-14T01:27:59.098Z,31.74
2023-04-14T01:28:30.500Z,31.70
2023-04-14T01:29:02.150Z,31.73
2023-04-14T01:29:33.690Z,31.69
2023-04-14T01:30:05.122Z,31.56
2023-04-14T01:30:36.450Z,31.59
2023-04-14T01:31:07.844Z,31.45
2023-04-14T01:31:39.316Z,31.49
2023-04-14T01:32:10.713Z,31.60
2023-04-14T01:32:42.111Z,31.51
2023-04-14T01:33:13.493Z,31.52
2023-04-14T01:33:44.871Z,31.41
2023-04-14T01:34:16.322Z,31.43
2023-04-14T01:34:47.744Z,31.53
2023-04-14T01:35:19.169Z,31.62
2023-04-14T01:35:50.550Z,31.45
2023-04-14T01:36:21.941Z,31.55
2023-04-14T01:36:53.351Z,31.51
2023-04-14T01:37:24.761Z,31.48
2023-04-14T01:37:56.157Z,31.43
2023-04-14T01:38:27.576Z,31.56
2023-04-14T01:38:59.171Z,31.40
2023-04-14T01:39:30.708Z,31.37
2023-04-14T01:40:02.134Z,31.34
2023-04-14T01:40:33.597Z,31.41
2023-04-14T01:41:04.959Z,31.51
2023-04-14T01:41:36.326Z,31.41
2023-04-14T01:42:07.717Z,31.39
2023-04-14T01:42:39.087Z,31.23
2023-04-14T01:43:10.506Z,31.46
2023-04-14T01:43:41.939Z,31.48
2023-04-14T01:44:13.312Z,31.37
2023-04-14T01:44:44.664Z,31.52
2023-04-14T01:45:16.051Z,31.33
2023-04-14T01:45:47.548Z,31.49
2023-04-14T01:46:19.007Z,31.54
2023-04-14T01:46:50.446Z,31.64
2023-04-14T01:47:21.965Z,31.65
2023-04-14T01:47:53.530Z,31.58
2023-04-14T01:48:24.992Z,31.51
2023-04-14T01:48:56.399Z,31.43
2023-04-14T01:49:27.809Z,31.39
2023-04-14T01:49:59.284Z,31.52
2023-04-14T01:50:30.762Z,31.38
2023-04-14T01:51:02.157Z,31.58
2023-04-14T01:51:33.508Z,31.44
2023-04-14T01:52:04.874Z,31.54
2023-04-14T01:52:36.293Z,31.51
2023-04-14T01:53:07.722Z,31.52
2023-04-14T01:53:39.106Z,31.49
2023-04-14T01:54:10.491Z,31.46
2023-04-14T01:54:41.872Z,31.60
2023-04-14T01:55:13.267Z,31.57
2023-04-14T01:55:44.637Z,31.51
2023-04-14T01:56:16.025Z,31.36
2023-04-14T01:56:47.442Z,31.47
2023-04-14T01:57:18.882Z,31.47
2023-04-14T01:57:50.245Z,31.33
2023-04-14T01:58:21.669Z,31.51
2023-04-14T01:58:53.043Z,31.39
2023-04-14T01:59:24.425Z,31.47
2023-04-14T01:59:55.848Z,31.36
2023-04-14T02:00:27.250Z,31.47
2023-04-14T02:00:58.747Z,31.33
2023-04-14T02:01:30.248Z,31.49
2023-04-14T02:02:01.714Z,31.41
2023-04-14T02:02:33.348Z,31.54
2023-04-14T02:03:04.953Z,31.36
2023-04-14T02:03:36.449Z,31.52
2023-04-14T02:04:10.246Z,31.41
2023-04-14T02:04:41.688Z,31.39
2023-04-14T02:05:13.082Z,31.44
2023-04-14T02:05:44.438Z,31.32
2023-04-14T02:06:15.827Z,31.40
2023-04-14T02:06:47.220Z,31.35
2023-04-14T02:07:18.624Z,31.48
2023-04-14T02:07:50.214Z,31.42
2023-04-14T02:08:21.625Z,31.46
2023-04-14T02:08:53.028Z,31.45
2023-04-14T02:09:24.382Z,31.54
2023-04-14T02:09:55.814Z,31.55
2023-04-14T02:10:27.228Z,31.50
2023-04-14T02:10:58.579Z,31.57
2023-04-14T02:11:29.939Z,31.54
2023-04-14T02:12:01.354Z,31.48
2023-04-14T02:12:32.754Z,31.58
2023-04-14T02:13:04.107Z,31.50
2023-04-14T02:13:35.516Z,31.63
2023-04-14T02:14:06.889Z,31.46
2023-04-14T02:14:38.244Z,31.49
2023-04-14T02:15:09.706Z,31.65
2023-04-14T02:15:41.059Z,31.69
2023-04-14T02:16:12.547Z,31.64
2023-04-14T02:16:44.007Z,31.58
2023-04-14T02:17:15.386Z,31.59
2023-04-14T02:17:46.940Z,31.68
2023-04-14T02:18:18.369Z,31.41
2023-04-14T02:18:49.765Z,31.62
2023-04-14T02:19:21.239Z,31.52
2023-04-14T02:19:52.661Z,31.52
2023-04-14T02:20:24.115Z,31.50
2023-04-14T02:20:55.475Z,31.52
2023-04-14T02:21:26.907Z,31.59
2023-04-14T02:21:58.401Z,31.60
2023-04-14T02:22:29.791Z,31.54
2023-04-14T02:23:01.205Z,31.44
2023-04-14T02:23:32.572Z,31.49
2023-04-14T02:24:04.006Z,31.44
2023-04-14T02:24:35.387Z,31.42
2023-04-14T02:25:06.774Z,31.48
2023-04-14T02:25:38.229Z,31.54
2023-04-14T02:26:09.608Z,31.36
2023-04-14T02:26:41.023Z,31.56
2023-04-14T02:27:12.367Z,31.38
2023-04-14T02:27:43.706Z,31.53
2023-04-14T02:28:15.158Z,31.46
2023-04-14T02:28:46.528Z,31.51
2023-04-14T02:29:17.896Z,31.39
2023-04-14T02:29:49.307Z,31.60
2023-04-14T02:30:20.675Z,31.35
2023-04-14T02:30:52.229Z,31.40
2023-04-14T02:31:23.662Z,31.41
2023-04-14T02:31:55.199Z,31.60
2023-04-14T02:32:26.582Z,31.49
2023-04-14T02:32:58.098Z,31.63
2023-04-14T02:33:29.483Z,31.46
2023-04-14T02:34:00.888Z,31.63
2023-04-14T02:34:32.287Z,31.66
2023-04-14T02:35:03.684Z,31.63
2023-04-14T02:35:35.097Z,31.50
2023-04-14T02:36:06.552Z,31.68
2023-04-14T02:36:38.016Z,31.63
2023-04-14T02:37:09.408Z,31.70
2023-04-14T02:37:40.761Z,31.64
2023-04-14T02:38:12.161Z,31.46
2023-04-14T02:38:43.655Z,31.63
2023-04-14T02:39:15.010Z,31.57
2023-04-14T02:39:46.436Z,31.57
2023-04-14T02:40:17.803Z,31.51
2023-04-14T02:40:49.138Z,31.63
2023-04-14T02:41:20.655Z,31.73
2023-04-14T02:41:52.052Z,31.55
2023-04-14T02:42:23.406Z,31.51
2023-04-14T02:42:54.844Z,31.62
2023-04-14T02:43:26.228Z,31.44
2023-04-14T02:43:57.596Z,31.50
2023-04-14T02:44:29.009Z,31.52
2023-04-14T02:45:00.375Z,31.49
2023-04-14T02:45:31.768Z,31.59
2023-04-14T02:46:03.195Z,31.69
2023-04-14T02:46:34.811Z,31.53
2023-04-14T02:47:06.275Z,31.55
2023-04-14T02:47:37.710Z,31.65
2023-04-14T02:48:09.152Z,31.58
2023-04-14T02:48:40.496Z,31.57
2023-04-14T02:49:13.036Z,31.39
2023-04-14T02:49:44.552Z,31.55
2023-04-14T02:50:15.917Z,31.76
2023-04-14T02:50:47.287Z,31.68
2023-04-14T02:51:18.703Z,31.76
2023-04-14T02:51:50.137Z,31.65
2023-04-14T02:52:21.521Z,31.48
2023-04-14T02:52:53.146Z,31.50
2023-04-14T02:53:24.551Z,31.70
2023-04-14T02:53:55.941Z,31.61
2023-04-14T02:54:27.351Z,31.62
2023-04-14T02:54:58.800Z,31.63
2023-04-14T02:55:30.149Z,31.46
2023-04-14T02:56:01.623Z,31.61
2023-04-14T02:56:33.035Z,31.70
2023-04-14T02:57:04.521Z,31.53
2023-04-14T02:57:35.899Z,31.58
2023-04-14T02:58:07.290Z,31.48
2023-04-14T02:58:38.741Z,31.61
2023-04-14T02:59:10.119Z,31.54
2023-04-14T02:59:41.489Z,31.59
2023-04-14T03:00:12.883Z,31.58
2023-04-14T03:00:44.241Z,31.60
2023-04-14T03:01:15.677Z,31.57
2023-04-14T03:01:47.189Z,31.64
2023-04-14T03:02:18.992Z,31.61
2023-04-14T03:02:50.519Z,31.63
2023-04-14T03:03:22.011Z,31.43
2023-04-14T03:03:53.619Z,31.44
2023-04-14T03:04:25.078Z,31.58
2023-04-14T03:04:56.533Z,31.58
2023-04-14T03:05:27.910Z,31.53
2023-04-14T03:05:59.229Z,31.52
2023-04-14T03:06:30.621Z,31.49
2023-04-14T03:07:02.068Z,31.58
2023-04-14T03:07:33.624Z,31.53
2023-04-14T03:08:05.070Z,31.53
2023-04-14T03:08:36.454Z,31.60
2023-04-14T03:09:07.815Z,31.65
2023-04-14T03:09:39.274Z,31.69
2023-04-14T03:10:10.705Z,31.56
2023-04-14T03:10:42.134Z,31.55
2023-04-14T03:11:13.520Z,31.46
2023-04-14T03:11:44.943Z,31.53
2023-04-14T03:12:16.336Z,31.51
2023-04-14T03:12:47.793Z,31.40
2023-04-14T03:13:19.229Z,31.38
2023-04-14T03:13:50.611Z,31.36
2023-04-14T03:14:21.977Z,31.51
2023-04-14T03:14:53.415Z,31.41
2023-04-14T03:15:24.799Z,31.51
2023-04-14T03:15:56.289Z,31.35
2023-04-14T03:16:27.819Z,31.42
2023-04-14T03:16:59.409Z,31.61
2023-04-14T03:17:30.800Z,31.50
2023-04-14T03:18:02.243Z,31.53
2023-04-14T03:18:33.650Z,31.58
2023-04-14T03:19:05.057Z,31.58
2023-04-14T03:19:36.429Z,31.47
2023-04-14T03:20:07.853Z,31.39
2023-04-14T03:20:39.217Z,31.40
2023-04-14T03:21:10.622Z,31.48
2023-04-14T03:21:41.995Z,31.50
2023-04-14T03:22:13.386Z,31.40
2023-04-14T03:22:44.815Z,31.67
2023-04-14T03:24:48.882Z,31.51
2023-04-14T03:25:20.344Z,31.57
2023-04-14T03:25:53.385Z,31.65
2023-04-14T03:26:24.841Z,31.48
2023-04-14T03:26:56.275Z,31.53
2023-04-14T03:27:27.654Z,31.53
2023-04-14T03:27:59.056Z,31.37
2023-04-14T03:28:30.530Z,31.53
2023-04-14T03:29:02.177Z,31.54
2023-04-14T03:29:33.856Z,31.43
2023-04-14T03:30:05.332Z,31.47
2023-04-14T03:30:36.734Z,31.46
2023-04-14T03:31:08.183Z,31.37
2023-04-14T03:31:39.669Z,31.26
2023-04-14T03:32:11.133Z,31.46
2023-04-14T03:32:42.648Z,31.46
2023-04-14T03:33:14.125Z,31.55
2023-04-14T03:33:45.529Z,31.67
2023-04-14T03:34:16.949Z,31.55
2023-04-14T03:34:48.454Z,31.48
2023-04-14T03:35:20.011Z,31.39
2023-04-14T03:35:51.566Z,31.56
2023-04-14T03:36:22.983Z,31.43
2023-04-14T03:36:54.442Z,31.44
2023-04-14T03:37:25.876Z,31.59
2023-04-14T03:37:57.302Z,31.56
2023-04-14T03:38:28.823Z,31.45
2023-04-14T03:39:00.385Z,31.58
2023-04-14T03:39:31.901Z,31.45
2023-04-14T03:40:03.388Z,31.50
2023-04-14T03:40:34.912Z,31.39
2023-04-14T03:41:06.352Z,31.48
2023-04-14T03:41:37.855Z,31.52
2023-04-14T03:42:09.361Z,31.42
2023-04-14T03:42:41.137Z,31.41
2023-04-14T03:43:12.556Z,31.35
2023-04-14T03:43:44.016Z,31.41
2023-04-14T03:44:15.451Z,31.41
2023-04-14T03:44:46.873Z,31.46
2023-04-14T03:45:18.341Z,31.40
2023-04-14T03:45:49.766Z,31.48
2023-04-14T03:46:21.673Z,31.43
2023-04-14T03:46:53.503Z,31.51
2023-04-14T03:47:25.723Z,31.64
2023-04-14T03:47:57.558Z,31.35
2023-04-14T03:48:29.121Z,31.31
2023-04-14T03:49:00.741Z,31.35
2023-04-14T03:49:32.437Z,31.38
2023-04-14T03:50:03.854Z,31.38
2023-04-14T03:50:35.340Z,31.34
2023-04-14T03:51:06.775Z,31.21
2023-04-14T03:51:38.207Z,31.48
2023-04-14T03:52:09.617Z,31.34
2023-04-14T03:52:41.052Z,31.39
2023-04-14T03:53:12.596Z,31.30
2023-04-14T03:53:44.100Z,31.43
2023-04-14T03:54:15.563Z,31.41
2023-04-14T03:54:46.932Z,31.40
2023-04-14T03:55:18.341Z,31.41
2023-04-14T03:55:49.776Z,31.47
2023-04-14T03:56:21.145Z,31.55
2023-04-14T03:56:52.579Z,31.52
2023-04-14T03:57:24.045Z,31.39
2023-04-14T03:57:55.446Z,31.31
2023-04-14T03:58:26.988Z,31.38
2023-04-14T03:58:58.543Z,31.42
2023-04-14T03:59:30.238Z,31.32
2023-04-14T04:00:04.204Z,31.40
2023-04-14T04:00:38.423Z,31.45
2023-04-14T04:01:09.939Z,31.52
2023-04-14T04:01:41.360Z,31.38
2023-04-14T04:02:12.889Z,31.32
2023-04-14T04:02:44.564Z,31.31
2023-04-14T04:03:16.227Z,31.23
2023-04-14T04:03:48.017Z,31.35
2023-04-14T04:04:19.797Z,31.48
2023-04-14T04:04:51.438Z,31.20
2023-04-14T04:05:23.002Z,31.49
2023-04-14T04:05:54.522Z,31.41
2023-04-14T04:06:26.141Z,31.19
2023-04-14T04:06:57.620Z,31.40
2023-04-14T04:07:29.054Z,31.35
2023-04-14T04:08:00.718Z,31.26
2023-04-14T04:08:32.201Z,31.37
2023-04-14T04:09:03.722Z,31.28
2023-04-14T04:09:35.257Z,31.30
2023-04-14T04:10:06.664Z,31.37
2023-04-14T04:10:38.113Z,31.39
2023-04-14T04:11:09.570Z,31.15
2023-04-14T04:11:41.059Z,31.30
2023-04-14T04:12:12.547Z,31.38
2023-04-14T04:12:43.998Z,31.42
2023-04-14T04:13:15.442Z,31.34
2023-04-14T04:13:49.781Z,31.47
2023-04-14T04:14:21.193Z,31.35
2023-04-14T04:14:52.654Z,31.29
2023-04-14T04:15:24.070Z,31.49
2023-04-14T04:15:55.669Z,31.43
2023-04-14T04:16:27.109Z,31.26
2023-04-14T04:16:58.632Z,31.17
2023-04-14T04:17:30.064Z,31.30
2023-04-14T04:18:01.579Z,31.37
2023-04-14T04:18:33.101Z,31.42
2023-04-14T04:19:04.519Z,31.34
2023-04-14T04:19:35.984Z,31.19
2023-04-14T04:20:07.547Z,31.28
2023-04-14T04:20:38.967Z,31.31
2023-04-14T04:21:10.393Z,31.40
2023-04-14T04:21:41.805Z,31.34
2023-04-14T04:22:13.332Z,31.33
2023-04-14T04:22:44.808Z,31.43
2023-04-14T04:23:16.247Z,31.32
2023-04-14T04:23:47.654Z,31.50
2023-04-14T04:24:19.154Z,31.31
2023-04-14T04:24:50.573Z,31.37
2023-04-14T04:25:22.043Z,31.42
2023-04-14T04:25:53.459Z,31.30
2023-04-14T04:26:24.915Z,31.39
2023-04-14T04:26:56.341Z,31.44
2023-04-14T04:27:28.608Z,31.54
2023-04-14T04:28:00.210Z,31.34
2023-04-14T04:28:31.704Z,31.50
2023-04-14T04:29:03.351Z,31.33
2023-04-14T04:29:34.826Z,31.41
2023-04-14T04:30:06.291Z,31.41
2023-04-14T04:30:37.722Z,31.43
2023-04-14T04:31:09.198Z,31.45
2023-04-14T04:31:40.603Z,31.43
2023-04-14T04:32:12.099Z,31.40
2023-04-14T04:32:43.684Z,31.39
2023-04-14T04:33:15.229Z,31.47
2023-04-14T04:33:46.688Z,31.49
2023-04-14T04:34:18.079Z,31.56
2023-04-14T04:34:49.592Z,31.42
2023-04-14T04:35:21.022Z,31.37
2023-04-14T04:35:52.430Z,31.30
2023-04-14T04:36:23.872Z,31.39
2023-04-14T04:36:55.303Z,31.38
2023-04-14T04:37:26.720Z,31.21
2023-04-14T04:37:58.170Z,31.42
2023-04-14T04:38:29.572Z,31.43
2023-04-14T04:39:01.196Z,31.34
2023-04-14T04:39:32.844Z,31.45
2023-04-14T04:40:04.260Z,31.37
2023-04-14T04:40:35.708Z,31.32
2023-04-14T04:41:07.161Z,31.25
2023-04-14T04:41:38.540Z,31.36
2023-04-14T04:42:09.958Z,31.34
2023-04-14T04:42:41.469Z,31.37
2023-04-14T04:43:12.988Z,31.37
2023-04-14T04:43:44.423Z,31.44
2023-04-14T04:44:15.876Z,31.30
2023-04-14T04:44:47.371Z,31.47
2023-04-14T04:45:18.768Z,31.25
2023-04-14T04:45:50.248Z,31.33
2023-04-14T04:46:21.748Z,31.38
2023-04-14T04:46:53.409Z,31.22
2023-04-14T04:47:24.963Z,31.39
2023-04-14T04:47:56.503Z,31.44
2023-04-14T04:48:28.075Z,31.28
2023-04-14T04:48:59.786Z,31.25
2023-04-14T04:49:31.419Z,31.30
2023-04-14T04:50:02.851Z,31.47
2023-04-14T04:50:34.361Z,31.43
2023-04-14T04:51:05.810Z,31.30
2023-04-14T04:51:37.236Z,31.29
2023-04-14T04:52:08.630Z,31.30
2023-04-14T04:52:40.021Z,31.23
2023-04-14T04:53:11.515Z,31.38
2023-04-14T04:53:43.086Z,31.40
2023-04-14T04:54:14.586Z,31.29
2023-04-14T04:54:46.011Z,31.33
2023-04-14T04:55:17.466Z,31.33
2023-04-14T04:55:48.885Z,31.29
2023-04-14T04:56:20.310Z,31.20
2023-04-14T04:56:51.744Z,31.12
2023-04-14T04:57:23.172Z,31.20
2023-04-14T04:57:54.622Z,31.22
2023-04-14T04:58:26.044Z,31.20
2023-04-14T04:58:57.530Z,31.35
2023-04-14T04:59:28.939Z,31.37
2023-04-14T05:00:00.383Z,31.21
2023-04-14T05:00:34.842Z,31.33
2023-04-14T05:01:06.282Z,31.18
2023-04-14T05:01:37.794Z,31.38
2023-04-14T05:02:09.301Z,31.32
2023-04-14T05:02:41.067Z,31.33
2023-04-14T05:03:12.578Z,31.36
2023-04-14T05:03:44.036Z,31.36
2023-04-14T05:04:15.525Z,31.35
2023-04-14T05:04:47.182Z,31.24
2023-04-14T05:05:18.668Z,31.42
2023-04-14T05:05:50.114Z,31.30
2023-04-14T05:06:21.535Z,31.40
2023-04-14T05:06:52.918Z,31.31
2023-04-14T05:07:24.448Z,31.27
2023-04-14T05:07:55.938Z,31.30
2023-04-14T05:08:27.397Z,31.14
2023-04-14T05:08:58.903Z,31.37
2023-04-14T05:09:32.985Z,31.05
2023-04-14T05:10:04.395Z,31.25
2023-04-14T05:10:35.874Z,31.40
2023-04-14T05:11:07.325Z,31.26
2023-04-14T05:11:38.766Z,31.32
2023-04-14T05:12:10.212Z,31.29
2023-04-14T05:12:41.645Z,31.23
2023-04-14T05:13:13.076Z,31.25
2023-04-14T05:13:44.498Z,31.42
2023-04-14T05:14:15.925Z,31.17
2023-04-14T05:14:47.439Z,31.31
2023-04-14T05:15:18.847Z,31.13
2023-04-14T05:15:50.330Z,31.26
2023-04-14T05:16:21.907Z,31.22
2023-04-14T05:16:53.382Z,31.19
2023-04-14T05:17:24.905Z,31.23
2023-04-14T05:17:56.461Z,31.19
2023-04-14T05:18:27.924Z,31.14
2023-04-14T05:18:59.807Z,31.41
2023-04-14T05:19:31.482Z,31.07
2023-04-14T05:20:02.943Z,31.28
2023-04-14T05:20:35.083Z,31.21
2023-04-14T05:21:06.585Z,31.30
2023-04-14T05:21:38.020Z,31.30
2023-04-14T05:22:09.523Z,31.28
2023-04-14T05:22:40.970Z,31.16
2023-04-14T05:23:12.402Z,31.21
2023-04-14T05:23:43.848Z,31.21
2023-04-14T05:24:15.291Z,31.31
2023-04-14T05:24:46.868Z,31.25
2023-04-14T05:25:18.358Z,31.30
2023-04-14T05:25:49.822Z,31.26
2023-04-14T05:26:44.468Z,31.46
2023-04-14T05:27:14.613Z,31.26
2023-04-14T05:27:46.404Z,31.26
2023-04-14T05:28:17.844Z,31.24
2023-04-14T05:28:49.371Z,31.23
2023-04-14T05:29:20.785Z,31.14
2023-04-14T05:29:52.280Z,31.34
2023-04-14T05:30:23.754Z,31.26
2023-04-14T05:30:55.408Z,31.23
2023-04-14T05:31:26.972Z,31.39
2023-04-14T05:31:58.533Z,31.22
2023-04-14T05:32:29.992Z,31.19
2023-04-14T05:33:01.585Z,31.30
2023-04-14T05:33:33.070Z,31.37
2023-04-14T05:34:04.745Z,31.30
2023-04-14T05:34:36.270Z,31.38
2023-04-14T05:35:07.853Z,31.36
2023-04-14T05:35:39.323Z,31.39
2023-04-14T05:36:10.821Z,31.35
2023-04-14T05:36:42.244Z,31.33
2023-04-14T05:37:13.682Z,31.31
2023-04-14T05:37:45.085Z,31.19
2023-04-14T05:38:16.540Z,31.25
2023-04-14T05:38:48.029Z,31.40
2023-04-14T05:39:19.442Z,31.33
2023-04-14T05:39:50.862Z,31.10
2023-04-14T05:40:22.313Z,31.30
2023-04-14T05:40:53.720Z,31.30
2023-04-14T05:41:25.170Z,31.22
2023-04-14T05:41:56.589Z,31.36
2023-04-14T05:42:28.071Z,31.41
2023-04-14T05:42:59.475Z,31.41
2023-04-14T05:43:30.902Z,31.19
2023-04-14T05:44:02.612Z,31.25
2023-04-14T05:44:34.208Z,31.18
2023-04-14T05:45:05.647Z,31.22
2023-04-14T05:45:37.145Z,31.23
2023-04-14T05:46:08.577Z,31.16
2023-04-14T05:46:40.098Z,31.43
2023-04-14T05:47:11.556Z,31.25
2023-04-14T05:47:43.001Z,31.25
2023-04-14T05:48:14.435Z,31.18
2023-04-14T05:48:45.927Z,31.25
2023-04-14T05:49:17.362Z,31.12
2023-04-14T05:49:48.787Z,31.15
2023-04-14T05:50:20.204Z,31.27
2023-04-14T05:50:51.700Z,31.27
2023-04-14T05:51:23.087Z,31.18
2023-04-14T05:51:54.495Z,31.25
2023-04-14T05:52:25.925Z,31.10
2023-04-14T05:52:57.350Z,31.25
2023-04-14T05:53:28.772Z,31.17
2023-04-14T05:54:00.540Z,31.22
2023-04-14T05:54:32.223Z,31.27
2023-04-14T05:55:03.814Z,31.23
2023-04-14T05:55:35.247Z,31.07
2023-04-14T05:56:06.669Z,31.26
2023-04-14T05:56:38.087Z,31.38
2023-04-14T05:57:09.578Z,31.21
2023-04-14T05:57:40.998Z,31.34
2023-04-14T05:58:12.454Z,31.35
2023-04-14T05:58:43.895Z,31.29
2023-04-14T05:59:15.388Z,31.39
2023-04-14T05:59:46.827Z,31.47
2023-04-14T06:00:18.249Z,31.32
2023-04-14T06:00:49.672Z,31.43
2023-04-14T06:01:21.244Z,31.35
2023-04-14T06:01:52.735Z,31.51
2023-04-14T06:02:24.355Z,31.46
2023-04-14T06:02:56.267Z,31.35
2023-04-14T06:03:28.087Z,31.38
2023-04-14T06:03:59.979Z,31.46
2023-04-14T06:04:32.106Z,31.52
2023-04-14T06:05:04.034Z,31.41
2023-04-14T06:05:35.495Z,31.40
2023-04-14T06:06:06.924Z,31.43
2023-04-14T06:06:38.433Z,31.21
2023-04-14T06:07:09.870Z,31.42
2023-04-14T06:07:41.286Z,31.34
2023-04-14T06:08:12.729Z,31.40
2023-04-14T06:08:44.216Z,31.24
2023-04-14T06:09:15.643Z,31.24
2023-04-14T06:09:47.204Z,31.33
2023-04-14T06:10:18.659Z,31.40
2023-04-14T06:10:50.107Z,31.41
2023-04-14T06:11:21.687Z,31.22
2023-04-14T06:11:53.129Z,31.40
2023-04-14T06:12:24.615Z,31.31
2023-04-14T06:12:56.010Z,31.32
2023-04-14T06:13:29.029Z,31.28
2023-04-14T06:14:02.253Z,31.22
2023-04-14T06:14:33.835Z,31.34
2023-04-14T06:15:05.584Z,31.06
2023-04-14T06:15:37.028Z,31.34
2023-04-14T06:16:08.652Z,31.46
2023-04-14T06:16:40.202Z,31.34
2023-04-14T06:17:11.652Z,31.38
2023-04-14T06:17:43.150Z,31.33
2023-04-14T06:18:14.654Z,31.34
2023-04-14T06:18:46.100Z,31.32
2023-04-14T06:19:17.498Z,31.41
2023-04-14T06:19:48.986Z,31.38
2023-04-14T06:20:20.500Z,31.15
2023-04-14T06:20:52.004Z,31.30
2023-04-14T06:21:23.428Z,31.31
2023-04-14T06:21:54.944Z,31.33
2023-04-14T06:22:26.334Z,31.15
2023-04-14T06:22:57.732Z,31.13
2023-04-14T06:23:29.212Z,31.45
2023-04-14T06:24:00.706Z,31.31
2023-04-14T06:24:32.159Z,31.35
2023-04-14T06:25:03.590Z,31.39
2023-04-14T06:25:35.030Z,31.36
2023-04-14T06:26:06.433Z,31.30
2023-04-14T06:26:37.817Z,31.20
2023-04-14T06:27:09.239Z,31.30
2023-04-14T06:27:40.642Z,31.36
2023-04-14T06:28:12.070Z,31.44
2023-04-14T06:28:44.144Z,31.41
2023-04-14T06:29:15.883Z,31.29
2023-04-14T06:29:47.301Z,31.34
2023-04-14T06:30:18.690Z,31.40
2023-04-14T06:30:50.132Z,31.49
2023-04-14T06:31:21.605Z,31.38
2023-04-14T06:31:53.089Z,31.33
2023-04-14T06:32:24.572Z,31.43
2023-04-14T06:32:56.050Z,31.29
2023-04-14T06:33:27.535Z,31.38
2023-04-14T06:33:58.951Z,31.39
2023-04-14T06:34:30.465Z,31.36
2023-04-14T06:35:01.892Z,31.41
2023-04-14T06:35:34.119Z,31.33
2023-04-14T06:36:05.903Z,31.41
2023-04-14T06:36:37.444Z,31.44
2023-04-14T06:37:08.894Z,31.31
2023-04-14T06:37:40.479Z,31.36
2023-04-14T06:38:11.909Z,31.38
2023-04-14T06:38:43.417Z,31.41
2023-04-14T06:39:14.959Z,31.39
2023-04-14T06:39:46.470Z,31.29
2023-04-14T06:40:17.937Z,31.30
2023-04-14T06:40:51.297Z,31.39
2023-04-14T06:41:24.216Z,31.37
2023-04-14T06:41:55.700Z,31.38
2023-04-14T06:42:27.132Z,31.38
2023-04-14T06:42:58.556Z,31.23
2023-04-14T06:43:30.047Z,31.23
2023-04-14T06:44:01.460Z,31.34
2023-04-14T06:44:32.980Z,31.32
2023-04-14T06:45:04.509Z,31.30
2023-04-14T06:45:36.018Z,31.45
2023-04-14T06:46:07.522Z,31.37
2023-04-14T06:46:39.089Z,31.32
2023-04-14T06:47:10.527Z,31.26
2023-04-14T06:47:41.937Z,31.45